sensor_id;sensor_type;location;lat;lon;timestamp;P1;durP1;ratioP1;P2;durP2;ratioP2
58842;SDS011;44614;54.356;10.100;2023-03-31T00:01:09;18.63;;;6.13;;
58842;SDS011;44614;54.356;10.100;2023-03-31T00:03:35;32.28;;;6.82;;
58842;SDS011;44614;54.356;10.100;2023-03-31T00:06:03;25.23;;;6.53;;
58842;SDS011;44614;54.356;10.100;2023-03-31T00:10:59;13.05;;;6.05;;
58842;SDS011;44614;54.356;10.100;2023-03-31T00:13:26;31.98;;;7.95;;
58842;SDS011;44614;54.356;10.100;2023-03-31T00:15:55;21.85;;;5.95;;
58842;SDS011;44614;54.356;10.100;2023-03-31T00:18:25;23.42;;;6.15;;
58842;SDS011;44614;54.356;10.100;2023-03-31T00:20:51;21.80;;;6.75;;
58842;SDS011;44614;54.356;10.100;2023-03-31T00:23:17;27.08;;;6.35;;
58842;SDS011;44614;54.356;10.100;2023-03-31T00:25:51;18.58;;;5.43;;
58842;SDS011;44614;54.356;10.100;2023-03-31T00:28:16;24.08;;;6.70;;
58842;SDS011;44614;54.356;10.100;2023-03-31T00:30:42;23.05;;;6.10;;
58842;SDS011;44614;54.356;10.100;2023-03-31T00:33:07;14.27;;;4.57;;
58842;SDS011;44614;54.356;10.100;2023-03-31T00:35:34;23.17;;;5.40;;
58842;SDS011;44614;54.356;10.100;2023-03-31T00:37:59;14.18;;;5.65;;
58842;SDS011;44614;54.356;10.100;2023-03-31T00:40:24;13.23;;;5.38;;
58842;SDS011;44614;54.356;10.100;2023-03-31T00:42:50;20.65;;;5.00;;
58842;SDS011;44614;54.356;10.100;2023-03-31T00:47:41;23.83;;;5.97;;
58842;SDS011;44614;54.356;10.100;2023-03-31T00:50:21;15.60;;;5.55;;
58842;SDS011;44614;54.356;10.100;2023-03-31T00:52:50;15.35;;;5.10;;
58842;SDS011;44614;54.356;10.100;2023-03-31T00:55:21;13.65;;;4.28;;
58842;SDS011;44614;54.356;10.100;2023-03-31T00:57:51;11.18;;;3.55;;
58842;SDS011;44614;54.356;10.100;2023-03-31T01:00:18;12.95;;;5.13;;
58842;SDS011;44614;54.356;10.100;2023-03-31T01:02:45;13.63;;;4.17;;
58842;SDS011;44614;54.356;10.100;2023-03-31T01:05:21;15.45;;;3.65;;
58842;SDS011;44614;54.356;10.100;2023-03-31T01:07:49;6.78;;;2.92;;
58842;SDS011;44614;54.356;10.100;2023-03-31T01:12:46;11.25;;;3.33;;
58842;SDS011;44614;54.356;10.100;2023-03-31T01:15:14;13.30;;;3.60;;
58842;SDS011;44614;54.356;10.100;2023-03-31T01:17:39;21.00;;;3.13;;
58842;SDS011;44614;54.356;10.100;2023-03-31T01:23:38;10.25;;;2.47;;
58842;SDS011;44614;54.356;10.100;2023-03-31T01:40:34;11.52;;;3.50;;
58842;SDS011;44614;54.356;10.100;2023-03-31T01:48:19;15.23;;;3.97;;
58842;SDS011;44614;54.356;10.100;2023-03-31T01:50:57;13.13;;;3.10;;
58842;SDS011;44614;54.356;10.100;2023-03-31T01:53:32;12.13;;;3.22;;
58842;SDS011;44614;54.356;10.100;2023-03-31T01:56:06;11.50;;;3.42;;
58842;SDS011;44614;54.356;10.100;2023-03-31T01:58:35;17.15;;;4.45;;
58842;SDS011;44614;54.356;10.100;2023-03-31T02:01:09;11.32;;;4.25;;
58842;SDS011;44614;54.356;10.100;2023-03-31T02:04:21;16.77;;;4.38;;
58842;SDS011;44614;54.356;10.100;2023-03-31T02:06:50;21.98;;;4.60;;
58842;SDS011;44614;54.356;10.100;2023-03-31T02:09:22;21.08;;;5.28;;
58842;SDS011;44614;54.356;10.100;2023-03-31T02:11:52;16.98;;;3.85;;
58842;SDS011;44614;54.356;10.100;2023-03-31T02:14:21;12.35;;;3.28;;
58842;SDS011;44614;54.356;10.100;2023-03-31T02:16:52;11.70;;;3.67;;
58842;SDS011;44614;54.356;10.100;2023-03-31T02:19:22;23.23;;;4.45;;
58842;SDS011;44614;54.356;10.100;2023-03-31T02:21:53;13.38;;;4.03;;
58842;SDS011;44614;54.356;10.100;2023-03-31T02:24:20;18.60;;;5.88;;
58842;SDS011;44614;54.356;10.100;2023-03-31T02:29:33;20.05;;;4.05;;
58842;SDS011;44614;54.356;10.100;2023-03-31T02:34:39;16.00;;;3.15;;
58842;SDS011;44614;54.356;10.100;2023-03-31T02:37:05;19.02;;;4.90;;
58842;SDS011;44614;54.356;10.100;2023-03-31T02:39:32;13.27;;;4.88;;
58842;SDS011;44614;54.356;10.100;2023-03-31T02:41:59;15.00;;;2.90;;
58842;SDS011;44614;54.356;10.100;2023-03-31T02:44:31;19.17;;;3.58;;
58842;SDS011;44614;54.356;10.100;2023-03-31T02:47:04;18.92;;;3.58;;
58842;SDS011;44614;54.356;10.100;2023-03-31T02:49:32;17.90;;;4.78;;
58842;SDS011;44614;54.356;10.100;2023-03-31T02:52:10;12.60;;;3.15;;
58842;SDS011;44614;54.356;10.100;2023-03-31T02:55:16;11.75;;;4.28;;
58842;SDS011;44614;54.356;10.100;2023-03-31T02:58:13;18.63;;;5.65;;
58842;SDS011;44614;54.356;10.100;2023-03-31T03:14:50;10.30;;;2.80;;
58842;SDS011;44614;54.356;10.100;2023-03-31T03:17:29;15.13;;;3.72;;
58842;SDS011;44614;54.356;10.100;2023-03-31T03:20:07;12.15;;;3.58;;
58842;SDS011;44614;54.356;10.100;2023-03-31T03:22:35;7.13;;;3.88;;
58842;SDS011;44614;54.356;10.100;2023-03-31T03:25:01;12.43;;;3.40;;
58842;SDS011;44614;54.356;10.100;2023-03-31T03:27:27;21.67;;;4.95;;
58842;SDS011;44614;54.356;10.100;2023-03-31T03:29:53;13.18;;;3.97;;
58842;SDS011;44614;54.356;10.100;2023-03-31T03:32:18;14.25;;;3.95;;
58842;SDS011;44614;54.356;10.100;2023-03-31T03:34:43;14.57;;;3.25;;
58842;SDS011;44614;54.356;10.100;2023-03-31T03:37:09;10.20;;;4.32;;
58842;SDS011;44614;54.356;10.100;2023-03-31T03:39:34;15.18;;;3.92;;
58842;SDS011;44614;54.356;10.100;2023-03-31T03:41:59;12.90;;;3.17;;
58842;SDS011;44614;54.356;10.100;2023-03-31T03:44:25;16.45;;;3.47;;
58842;SDS011;44614;54.356;10.100;2023-03-31T03:46:50;16.80;;;4.28;;
58842;SDS011;44614;54.356;10.100;2023-03-31T03:49:15;17.92;;;3.42;;
58842;SDS011;44614;54.356;10.100;2023-03-31T03:51:41;5.72;;;2.45;;
58842;SDS011;44614;54.356;10.100;2023-03-31T03:54:06;20.95;;;4.15;;
58842;SDS011;44614;54.356;10.100;2023-03-31T03:56:32;13.25;;;2.92;;
58842;SDS011;44614;54.356;10.100;2023-03-31T03:58:57;13.38;;;3.63;;
58842;SDS011;44614;54.356;10.100;2023-03-31T04:01:23;20.15;;;3.97;;
58842;SDS011;44614;54.356;10.100;2023-03-31T04:03:48;14.18;;;3.70;;
58842;SDS011;44614;54.356;10.100;2023-03-31T04:06:13;12.70;;;2.75;;
58842;SDS011;44614;54.356;10.100;2023-03-31T04:08:39;20.73;;;3.75;;
58842;SDS011;44614;54.356;10.100;2023-03-31T04:11:10;8.57;;;2.63;;
58842;SDS011;44614;54.356;10.100;2023-03-31T04:13:39;14.73;;;3.47;;
58842;SDS011;44614;54.356;10.100;2023-03-31T04:16:05;10.63;;;3.55;;
58842;SDS011;44614;54.356;10.100;2023-03-31T04:18:31;25.05;;;7.03;;
58842;SDS011;44614;54.356;10.100;2023-03-31T04:20:56;11.60;;;3.22;;
58842;SDS011;44614;54.356;10.100;2023-03-31T04:23:31;14.90;;;4.07;;
58842;SDS011;44614;54.356;10.100;2023-03-31T04:25:57;12.18;;;3.22;;
58842;SDS011;44614;54.356;10.100;2023-03-31T04:28:22;13.52;;;3.70;;
58842;SDS011;44614;54.356;10.100;2023-03-31T04:30:51;13.52;;;4.00;;
58842;SDS011;44614;54.356;10.100;2023-03-31T04:33:19;10.93;;;3.63;;
58842;SDS011;44614;54.356;10.100;2023-03-31T04:35:45;15.57;;;3.95;;
58842;SDS011;44614;54.356;10.100;2023-03-31T04:38:14;13.80;;;3.70;;
58842;SDS011;44614;54.356;10.100;2023-03-31T04:40:46;16.45;;;3.75;;
58842;SDS011;44614;54.356;10.100;2023-03-31T04:43:12;11.82;;;3.72;;
58842;SDS011;44614;54.356;10.100;2023-03-31T04:45:38;16.08;;;3.67;;
58842;SDS011;44614;54.356;10.100;2023-03-31T04:48:04;27.83;;;3.72;;
58842;SDS011;44614;54.356;10.100;2023-03-31T04:50:29;14.18;;;3.67;;
58842;SDS011;44614;54.356;10.100;2023-03-31T04:52:55;12.40;;;3.13;;
58842;SDS011;44614;54.356;10.100;2023-03-31T04:55:20;9.52;;;3.78;;
58842;SDS011;44614;54.356;10.100;2023-03-31T04:57:46;9.90;;;3.38;;
58842;SDS011;44614;54.356;10.100;2023-03-31T05:00:11;7.05;;;2.63;;
58842;SDS011;44614;54.356;10.100;2023-03-31T05:02:37;13.50;;;2.97;;
58842;SDS011;44614;54.356;10.100;2023-03-31T05:05:02;12.40;;;3.47;;
58842;SDS011;44614;54.356;10.100;2023-03-31T05:07:28;12.93;;;3.58;;
58842;SDS011;44614;54.356;10.100;2023-03-31T05:09:54;11.13;;;3.38;;
58842;SDS011;44614;54.356;10.100;2023-03-31T05:12:19;12.95;;;3.30;;
58842;SDS011;44614;54.356;10.100;2023-03-31T05:14:44;14.95;;;4.40;;
58842;SDS011;44614;54.356;10.100;2023-03-31T05:17:10;18.95;;;3.58;;
58842;SDS011;44614;54.356;10.100;2023-03-31T05:19:35;11.25;;;3.33;;
58842;SDS011;44614;54.356;10.100;2023-03-31T05:22:01;16.58;;;3.42;;
58842;SDS011;44614;54.356;10.100;2023-03-31T05:24:26;16.83;;;4.25;;
58842;SDS011;44614;54.356;10.100;2023-03-31T05:26:55;13.10;;;3.13;;
58842;SDS011;44614;54.356;10.100;2023-03-31T05:29:21;5.03;;;2.47;;
58842;SDS011;44614;54.356;10.100;2023-03-31T05:31:47;13.23;;;3.42;;
58842;SDS011;44614;54.356;10.100;2023-03-31T05:34:13;21.60;;;3.95;;
58842;SDS011;44614;54.356;10.100;2023-03-31T05:36:39;8.93;;;3.30;;
58842;SDS011;44614;54.356;10.100;2023-03-31T05:39:04;12.80;;;3.17;;
58842;SDS011;44614;54.356;10.100;2023-03-31T05:41:31;6.60;;;2.53;;
58842;SDS011;44614;54.356;10.100;2023-03-31T05:43:56;13.48;;;2.85;;
58842;SDS011;44614;54.356;10.100;2023-03-31T05:46:22;9.52;;;2.55;;
58842;SDS011;44614;54.356;10.100;2023-03-31T05:48:47;14.13;;;3.22;;
58842;SDS011;44614;54.356;10.100;2023-03-31T05:51:13;10.52;;;2.47;;
58842;SDS011;44614;54.356;10.100;2023-03-31T05:53:38;18.60;;;3.58;;
58842;SDS011;44614;54.356;10.100;2023-03-31T05:56:04;21.83;;;3.63;;
58842;SDS011;44614;54.356;10.100;2023-03-31T05:58:32;16.75;;;3.10;;
58842;SDS011;44614;54.356;10.100;2023-03-31T06:01:09;16.85;;;3.53;;
58842;SDS011;44614;54.356;10.100;2023-03-31T06:03:37;19.65;;;3.80;;
58842;SDS011;44614;54.356;10.100;2023-03-31T06:06:08;14.75;;;3.58;;
58842;SDS011;44614;54.356;10.100;2023-03-31T06:08:34;13.48;;;3.83;;
58842;SDS011;44614;54.356;10.100;2023-03-31T06:11:03;8.80;;;3.03;;
58842;SDS011;44614;54.356;10.100;2023-03-31T06:13:29;11.57;;;2.95;;
58842;SDS011;44614;54.356;10.100;2023-03-31T06:15:55;9.93;;;3.25;;
58842;SDS011;44614;54.356;10.100;2023-03-31T06:18:21;14.15;;;4.68;;
58842;SDS011;44614;54.356;10.100;2023-03-31T06:20:47;18.63;;;3.70;;
58842;SDS011;44614;54.356;10.100;2023-03-31T06:23:13;7.90;;;3.03;;
58842;SDS011;44614;54.356;10.100;2023-03-31T06:25:38;15.88;;;3.03;;
58842;SDS011;44614;54.356;10.100;2023-03-31T06:28:03;14.73;;;3.40;;
58842;SDS011;44614;54.356;10.100;2023-03-31T06:30:30;13.63;;;3.65;;
58842;SDS011;44614;54.356;10.100;2023-03-31T06:32:55;22.50;;;5.28;;
58842;SDS011;44614;54.356;10.100;2023-03-31T06:35:21;13.15;;;3.15;;
58842;SDS011;44614;54.356;10.100;2023-03-31T06:37:46;17.52;;;2.67;;
58842;SDS011;44614;54.356;10.100;2023-03-31T06:40:11;21.48;;;2.72;;
58842;SDS011;44614;54.356;10.100;2023-03-31T06:42:37;15.30;;;3.55;;
58842;SDS011;44614;54.356;10.100;2023-03-31T06:45:02;13.65;;;3.45;;
58842;SDS011;44614;54.356;10.100;2023-03-31T06:47:27;15.32;;;3.60;;
58842;SDS011;44614;54.356;10.100;2023-03-31T06:49:53;9.63;;;3.58;;
58842;SDS011;44614;54.356;10.100;2023-03-31T06:52:18;4.40;;;2.10;;
58842;SDS011;44614;54.356;10.100;2023-03-31T06:54:43;10.10;;;2.95;;
58842;SDS011;44614;54.356;10.100;2023-03-31T06:57:09;8.13;;;3.13;;
58842;SDS011;44614;54.356;10.100;2023-03-31T06:59:34;16.83;;;4.55;;
58842;SDS011;44614;54.356;10.100;2023-03-31T07:02:00;21.13;;;4.22;;
58842;SDS011;44614;54.356;10.100;2023-03-31T07:04:25;19.75;;;3.78;;
58842;SDS011;44614;54.356;10.100;2023-03-31T07:06:51;14.43;;;3.00;;
58842;SDS011;44614;54.356;10.100;2023-03-31T07:09:16;6.75;;;2.40;;
58842;SDS011;44614;54.356;10.100;2023-03-31T07:11:42;7.50;;;3.50;;
58842;SDS011;44614;54.356;10.100;2023-03-31T07:14:08;4.45;;;2.63;;
58842;SDS011;44614;54.356;10.100;2023-03-31T07:16:33;23.17;;;3.78;;
58842;SDS011;44614;54.356;10.100;2023-03-31T07:19:00;11.23;;;3.20;;
58842;SDS011;44614;54.356;10.100;2023-03-31T07:21:27;12.65;;;2.80;;
58842;SDS011;44614;54.356;10.100;2023-03-31T07:23:52;10.40;;;2.88;;
58842;SDS011;44614;54.356;10.100;2023-03-31T07:26:18;22.10;;;3.50;;
58842;SDS011;44614;54.356;10.100;2023-03-31T07:28:43;6.70;;;2.30;;
58842;SDS011;44614;54.356;10.100;2023-03-31T07:31:09;19.70;;;4.80;;
58842;SDS011;44614;54.356;10.100;2023-03-31T07:33:35;13.55;;;2.58;;
58842;SDS011;44614;54.356;10.100;2023-03-31T07:36:03;16.33;;;3.80;;
58842;SDS011;44614;54.356;10.100;2023-03-31T07:38:29;10.38;;;2.80;;
58842;SDS011;44614;54.356;10.100;2023-03-31T07:40:55;9.38;;;2.15;;
58842;SDS011;44614;54.356;10.100;2023-03-31T07:43:20;9.60;;;2.97;;
58842;SDS011;44614;54.356;10.100;2023-03-31T07:45:45;7.25;;;2.47;;
58842;SDS011;44614;54.356;10.100;2023-03-31T07:48:11;8.05;;;3.33;;
58842;SDS011;44614;54.356;10.100;2023-03-31T07:50:36;10.30;;;2.85;;
58842;SDS011;44614;54.356;10.100;2023-03-31T07:53:01;5.38;;;2.47;;
58842;SDS011;44614;54.356;10.100;2023-03-31T07:55:27;11.75;;;3.30;;
58842;SDS011;44614;54.356;10.100;2023-03-31T07:57:52;16.00;;;3.38;;
58842;SDS011;44614;54.356;10.100;2023-03-31T08:00:18;9.40;;;3.30;;
58842;SDS011;44614;54.356;10.100;2023-03-31T08:02:44;14.48;;;4.68;;
58842;SDS011;44614;54.356;10.100;2023-03-31T08:05:10;8.13;;;4.18;;
58842;SDS011;44614;54.356;10.100;2023-03-31T08:07:38;9.05;;;3.85;;
58842;SDS011;44614;54.356;10.100;2023-03-31T08:10:07;11.10;;;3.53;;
58842;SDS011;44614;54.356;10.100;2023-03-31T08:12:41;12.23;;;3.25;;
58842;SDS011;44614;54.356;10.100;2023-03-31T08:15:07;13.88;;;3.88;;
58842;SDS011;44614;54.356;10.100;2023-03-31T08:17:33;30.48;;;4.80;;
58842;SDS011;44614;54.356;10.100;2023-03-31T08:19:58;17.23;;;5.10;;
58842;SDS011;44614;54.356;10.100;2023-03-31T08:22:23;9.35;;;3.38;;
58842;SDS011;44614;54.356;10.100;2023-03-31T08:24:49;10.23;;;3.73;;
58842;SDS011;44614;54.356;10.100;2023-03-31T08:27:14;13.13;;;4.35;;
58842;SDS011;44614;54.356;10.100;2023-03-31T08:29:40;9.68;;;3.50;;
58842;SDS011;44614;54.356;10.100;2023-03-31T08:32:06;14.97;;;3.97;;
58842;SDS011;44614;54.356;10.100;2023-03-31T08:34:31;11.47;;;3.70;;
58842;SDS011;44614;54.356;10.100;2023-03-31T08:36:56;7.93;;;2.40;;
58842;SDS011;44614;54.356;10.100;2023-03-31T08:39:22;12.45;;;3.60;;
58842;SDS011;44614;54.356;10.100;2023-03-31T08:41:55;8.43;;;3.17;;
58842;SDS011;44614;54.356;10.100;2023-03-31T08:44:33;16.15;;;4.00;;
58842;SDS011;44614;54.356;10.100;2023-03-31T08:47:02;11.73;;;4.53;;
58842;SDS011;44614;54.356;10.100;2023-03-31T08:49:35;13.02;;;4.38;;
58842;SDS011;44614;54.356;10.100;2023-03-31T08:52:06;12.02;;;3.63;;
58842;SDS011;44614;54.356;10.100;2023-03-31T08:54:41;14.93;;;3.75;;
58842;SDS011;44614;54.356;10.100;2023-03-31T08:57:14;16.95;;;4.60;;
58842;SDS011;44614;54.356;10.100;2023-03-31T08:59:44;12.60;;;3.85;;
58842;SDS011;44614;54.356;10.100;2023-03-31T09:10:19;9.00;;;3.13;;
58842;SDS011;44614;54.356;10.100;2023-03-31T09:18:06;11.30;;;3.58;;
58842;SDS011;44614;54.356;10.100;2023-03-31T09:20:44;11.27;;;4.15;;
58842;SDS011;44614;54.356;10.100;2023-03-31T09:23:28;15.70;;;4.35;;
58842;SDS011;44614;54.356;10.100;2023-03-31T09:25:58;9.77;;;3.60;;
58842;SDS011;44614;54.356;10.100;2023-03-31T09:28:35;14.60;;;4.05;;
58842;SDS011;44614;54.356;10.100;2023-03-31T09:31:04;9.93;;;3.53;;
58842;SDS011;44614;54.356;10.100;2023-03-31T09:33:37;10.85;;;3.70;;
58842;SDS011;44614;54.356;10.100;2023-03-31T09:36:14;19.55;;;4.40;;
58842;SDS011;44614;54.356;10.100;2023-03-31T09:38:42;22.42;;;6.10;;
58842;SDS011;44614;54.356;10.100;2023-03-31T09:41:08;12.82;;;3.63;;
58842;SDS011;44614;54.356;10.100;2023-03-31T09:43:36;17.83;;;4.75;;
58842;SDS011;44614;54.356;10.100;2023-03-31T09:46:05;16.15;;;4.40;;
58842;SDS011;44614;54.356;10.100;2023-03-31T09:48:43;10.00;;;4.03;;
58842;SDS011;44614;54.356;10.100;2023-03-31T09:51:19;13.50;;;4.60;;
58842;SDS011;44614;54.356;10.100;2023-03-31T09:53:51;18.15;;;5.60;;
58842;SDS011;44614;54.356;10.100;2023-03-31T09:56:32;9.48;;;4.72;;
58842;SDS011;44614;54.356;10.100;2023-03-31T09:59:00;19.23;;;5.32;;
58842;SDS011;44614;54.356;10.100;2023-03-31T10:01:26;12.20;;;3.92;;
58842;SDS011;44614;54.356;10.100;2023-03-31T10:03:53;13.40;;;4.28;;
58842;SDS011;44614;54.356;10.100;2023-03-31T10:06:20;16.92;;;5.10;;
58842;SDS011;44614;54.356;10.100;2023-03-31T10:11:18;16.25;;;3.72;;
58842;SDS011;44614;54.356;10.100;2023-03-31T10:13:45;13.80;;;4.60;;
58842;SDS011;44614;54.356;10.100;2023-03-31T10:16:26;13.20;;;5.00;;
58842;SDS011;44614;54.356;10.100;2023-03-31T10:19:11;18.10;;;5.38;;
58842;SDS011;44614;54.356;10.100;2023-03-31T10:22:00;11.50;;;4.75;;
58842;SDS011;44614;54.356;10.100;2023-03-31T10:24:49;13.35;;;5.35;;
58842;SDS011;44614;54.356;10.100;2023-03-31T10:29:56;16.67;;;5.70;;
58842;SDS011;44614;54.356;10.100;2023-03-31T10:32:29;10.90;;;5.20;;
58842;SDS011;44614;54.356;10.100;2023-03-31T10:34:57;10.27;;;5.07;;
58842;SDS011;44614;54.356;10.100;2023-03-31T10:37:27;11.48;;;5.63;;
58842;SDS011;44614;54.356;10.100;2023-03-31T10:40:08;14.20;;;6.32;;
58842;SDS011;44614;54.356;10.100;2023-03-31T10:42:37;9.98;;;5.03;;
58842;SDS011;44614;54.356;10.100;2023-03-31T10:46:03;11.83;;;4.70;;
58842;SDS011;44614;54.356;10.100;2023-03-31T10:48:02;9.95;;;4.20;;
58842;SDS011;44614;54.356;10.100;2023-03-31T10:53:01;12.05;;;3.60;;
58842;SDS011;44614;54.356;10.100;2023-03-31T10:55:37;6.22;;;2.83;;
58842;SDS011;44614;54.356;10.100;2023-03-31T10:58:29;6.28;;;2.25;;
58842;SDS011;44614;54.356;10.100;2023-03-31T11:07:27;7.03;;;2.25;;
58842;SDS011;44614;54.356;10.100;2023-03-31T11:12:34;3.88;;;1.65;;
58842;SDS011;44614;54.356;10.100;2023-03-31T11:15:24;10.55;;;2.60;;
58842;SDS011;44614;54.356;10.100;2023-03-31T11:21:00;10.38;;;2.63;;
58842;SDS011;44614;54.356;10.100;2023-03-31T11:23:42;6.22;;;1.92;;
58842;SDS011;44614;54.356;10.100;2023-03-31T11:28:52;4.38;;;1.83;;
58842;SDS011;44614;54.356;10.100;2023-03-31T11:42:16;7.35;;;2.55;;
58842;SDS011;44614;54.356;10.100;2023-03-31T11:44:47;9.52;;;3.00;;
58842;SDS011;44614;54.356;10.100;2023-03-31T11:47:21;6.88;;;2.70;;
58842;SDS011;44614;54.356;10.100;2023-03-31T11:49:50;8.15;;;2.83;;
58842;SDS011;44614;54.356;10.100;2023-03-31T11:52:21;3.83;;;2.88;;
58842;SDS011;44614;54.356;10.100;2023-03-31T11:57:38;5.00;;;2.10;;
58842;SDS011;44614;54.356;10.100;2023-03-31T12:00:16;4.68;;;1.77;;
58842;SDS011;44614;54.356;10.100;2023-03-31T12:02:45;4.47;;;1.73;;
58842;SDS011;44614;54.356;10.100;2023-03-31T12:05:16;7.07;;;2.10;;
58842;SDS011;44614;54.356;10.100;2023-03-31T12:12:48;7.90;;;2.72;;
58842;SDS011;44614;54.356;10.100;2023-03-31T12:15:23;4.30;;;1.85;;
58842;SDS011;44614;54.356;10.100;2023-03-31T12:18:02;5.78;;;2.70;;
58842;SDS011;44614;54.356;10.100;2023-03-31T12:20:36;6.93;;;2.45;;
58842;SDS011;44614;54.356;10.100;2023-03-31T12:23:28;5.65;;;1.95;;
58842;SDS011;44614;54.356;10.100;2023-03-31T12:25:57;4.25;;;1.83;;
58842;SDS011;44614;54.356;10.100;2023-03-31T12:28:38;3.22;;;2.10;;
58842;SDS011;44614;54.356;10.100;2023-03-31T12:31:06;2.25;;;1.10;;
58842;SDS011;44614;54.356;10.100;2023-03-31T12:33:41;4.43;;;1.63;;
58842;SDS011;44614;54.356;10.100;2023-03-31T12:36:23;3.67;;;1.52;;
58842;SDS011;44614;54.356;10.100;2023-03-31T12:47:44;2.17;;;1.15;;
58842;SDS011;44614;54.356;10.100;2023-03-31T12:56:04;2.42;;;1.05;;
58842;SDS011;44614;54.356;10.100;2023-03-31T13:01:02;2.50;;;1.35;;
58842;SDS011;44614;54.356;10.100;2023-03-31T13:11:39;2.70;;;0.82;;
58842;SDS011;44614;54.356;10.100;2023-03-31T13:14:27;2.92;;;1.00;;
58842;SDS011;44614;54.356;10.100;2023-03-31T13:19:49;3.53;;;1.10;;
58842;SDS011;44614;54.356;10.100;2023-03-31T13:22:28;1.27;;;0.80;;
58842;SDS011;44614;54.356;10.100;2023-03-31T13:27:53;1.25;;;0.70;;
58842;SDS011;44614;54.356;10.100;2023-03-31T13:30:53;5.13;;;0.95;;
58842;SDS011;44614;54.356;10.100;2023-03-31T13:33:30;4.70;;;1.05;;
58842;SDS011;44614;54.356;10.100;2023-03-31T13:49:43;4.30;;;0.85;;
58842;SDS011;44614;54.356;10.100;2023-03-31T13:52:25;4.05;;;1.58;;
58842;SDS011;44614;54.356;10.100;2023-03-31T13:55:02;3.60;;;1.38;;
58842;SDS011;44614;54.356;10.100;2023-03-31T14:00:24;2.28;;;0.90;;
58842;SDS011;44614;54.356;10.100;2023-03-31T14:06:06;2.00;;;1.20;;
58842;SDS011;44614;54.356;10.100;2023-03-31T14:16:37;1.92;;;1.00;;
58842;SDS011;44614;54.356;10.100;2023-03-31T14:19:20;1.45;;;1.00;;
58842;SDS011;44614;54.356;10.100;2023-03-31T14:21:57;2.83;;;1.23;;
58842;SDS011;44614;54.356;10.100;2023-03-31T14:24:49;3.15;;;1.58;;
58842;SDS011;44614;54.356;10.100;2023-03-31T14:27:35;1.80;;;1.17;;
58842;SDS011;44614;54.356;10.100;2023-03-31T14:30:41;2.28;;;1.30;;
58842;SDS011;44614;54.356;10.100;2023-03-31T14:33:28;4.32;;;1.42;;
58842;SDS011;44614;54.356;10.100;2023-03-31T14:36:13;4.45;;;1.27;;
58842;SDS011;44614;54.356;10.100;2023-03-31T14:39:02;1.67;;;1.25;;
58842;SDS011;44614;54.356;10.100;2023-03-31T14:41:30;1.55;;;1.13;;
58842;SDS011;44614;54.356;10.100;2023-03-31T14:43:57;1.73;;;1.63;;
58842;SDS011;44614;54.356;10.100;2023-03-31T14:46:25;2.90;;;1.48;;
58842;SDS011;44614;54.356;10.100;2023-03-31T14:48:54;4.95;;;1.90;;
58842;SDS011;44614;54.356;10.100;2023-03-31T14:51:25;2.80;;;1.57;;
58842;SDS011;44614;54.356;10.100;2023-03-31T14:53:55;3.55;;;1.70;;
58842;SDS011;44614;54.356;10.100;2023-03-31T14:56:36;2.92;;;1.33;;
58842;SDS011;44614;54.356;10.100;2023-03-31T14:59:04;3.65;;;1.60;;
58842;SDS011;44614;54.356;10.100;2023-03-31T15:01:32;4.15;;;2.60;;
58842;SDS011;44614;54.356;10.100;2023-03-31T15:03:59;3.15;;;1.77;;
58842;SDS011;44614;54.356;10.100;2023-03-31T15:06:29;4.13;;;1.88;;
58842;SDS011;44614;54.356;10.100;2023-03-31T15:08:57;3.95;;;1.80;;
58842;SDS011;44614;54.356;10.100;2023-03-31T15:11:25;4.70;;;2.17;;
58842;SDS011;44614;54.356;10.100;2023-03-31T15:13:52;3.53;;;1.50;;
58842;SDS011;44614;54.356;10.100;2023-03-31T15:19:10;4.10;;;1.60;;
58842;SDS011;44614;54.356;10.100;2023-03-31T15:21:39;2.47;;;1.45;;
58842;SDS011;44614;54.356;10.100;2023-03-31T15:24:04;2.23;;;1.23;;
58842;SDS011;44614;54.356;10.100;2023-03-31T15:26:34;2.47;;;1.50;;
58842;SDS011;44614;54.356;10.100;2023-03-31T15:31:55;4.38;;;1.70;;
58842;SDS011;44614;54.356;10.100;2023-03-31T15:34:25;4.90;;;1.80;;
58842;SDS011;44614;54.356;10.100;2023-03-31T15:36:55;6.22;;;2.35;;
58842;SDS011;44614;54.356;10.100;2023-03-31T15:39:25;2.85;;;1.50;;
58842;SDS011;44614;54.356;10.100;2023-03-31T15:41:56;2.40;;;1.75;;
58842;SDS011;44614;54.356;10.100;2023-03-31T15:46:59;5.50;;;1.20;;
58842;SDS011;44614;54.356;10.100;2023-03-31T15:49:36;3.40;;;1.05;;
58842;SDS011;44614;54.356;10.100;2023-03-31T15:52:31;2.53;;;1.38;;
58842;SDS011;44614;54.356;10.100;2023-03-31T15:55:00;1.98;;;0.93;;
58842;SDS011;44614;54.356;10.100;2023-03-31T15:59:56;3.33;;;1.48;;
58842;SDS011;44614;54.356;10.100;2023-03-31T16:02:24;1.42;;;0.88;;
58842;SDS011;44614;54.356;10.100;2023-03-31T16:04:56;1.85;;;1.00;;
58842;SDS011;44614;54.356;10.100;2023-03-31T16:07:27;2.03;;;1.17;;
58842;SDS011;44614;54.356;10.100;2023-03-31T16:10:06;1.02;;;0.85;;
58842;SDS011;44614;54.356;10.100;2023-03-31T16:12:40;3.53;;;1.30;;
58842;SDS011;44614;54.356;10.100;2023-03-31T16:15:35;0.75;;;0.50;;
58842;SDS011;44614;54.356;10.100;2023-03-31T16:18:04;2.08;;;0.93;;
58842;SDS011;44614;54.356;10.100;2023-03-31T16:20:35;0.70;;;0.70;;
58842;SDS011;44614;54.356;10.100;2023-03-31T16:23:12;1.40;;;0.73;;
58842;SDS011;44614;54.356;10.100;2023-03-31T16:25:40;2.58;;;1.05;;
58842;SDS011;44614;54.356;10.100;2023-03-31T16:28:06;3.13;;;0.80;;
58842;SDS011;44614;54.356;10.100;2023-03-31T16:30:39;7.65;;;1.08;;
58842;SDS011;44614;54.356;10.100;2023-03-31T16:33:13;3.00;;;0.90;;
58842;SDS011;44614;54.356;10.100;2023-03-31T16:35:42;1.45;;;0.80;;
58842;SDS011;44614;54.356;10.100;2023-03-31T16:38:12;2.13;;;1.33;;
58842;SDS011;44614;54.356;10.100;2023-03-31T16:40:41;1.92;;;0.93;;
58842;SDS011;44614;54.356;10.100;2023-03-31T16:43:15;2.05;;;1.17;;
58842;SDS011;44614;54.356;10.100;2023-03-31T16:45:44;4.28;;;0.85;;
58842;SDS011;44614;54.356;10.100;2023-03-31T16:48:11;2.33;;;1.00;;
58842;SDS011;44614;54.356;10.100;2023-03-31T16:50:37;3.70;;;1.33;;
58842;SDS011;44614;54.356;10.100;2023-03-31T16:55:29;5.67;;;1.50;;
58842;SDS011;44614;54.356;10.100;2023-03-31T16:57:58;4.38;;;1.30;;
58842;SDS011;44614;54.356;10.100;2023-03-31T17:00:30;3.42;;;1.00;;
58842;SDS011;44614;54.356;10.100;2023-03-31T17:02:58;2.85;;;1.40;;
58842;SDS011;44614;54.356;10.100;2023-03-31T17:05:25;2.50;;;1.58;;
58842;SDS011;44614;54.356;10.100;2023-03-31T17:07:51;4.53;;;1.33;;
58842;SDS011;44614;54.356;10.100;2023-03-31T17:10:17;6.05;;;1.42;;
58842;SDS011;44614;54.356;10.100;2023-03-31T17:12:43;1.38;;;1.25;;
58842;SDS011;44614;54.356;10.100;2023-03-31T17:15:08;2.57;;;1.23;;
58842;SDS011;44614;54.356;10.100;2023-03-31T17:17:35;3.75;;;1.48;;
58842;SDS011;44614;54.356;10.100;2023-03-31T17:20:00;1.85;;;1.13;;
58842;SDS011;44614;54.356;10.100;2023-03-31T17:22:26;1.90;;;1.20;;
58842;SDS011;44614;54.356;10.100;2023-03-31T17:24:51;7.43;;;1.40;;
58842;SDS011;44614;54.356;10.100;2023-03-31T17:27:22;1.60;;;1.30;;
58842;SDS011;44614;54.356;10.100;2023-03-31T17:29:47;2.25;;;1.30;;
58842;SDS011;44614;54.356;10.100;2023-03-31T17:32:13;4.65;;;1.45;;
58842;SDS011;44614;54.356;10.100;2023-03-31T17:34:39;3.47;;;1.40;;
58842;SDS011;44614;54.356;10.100;2023-03-31T17:37:05;3.60;;;1.70;;
58842;SDS011;44614;54.356;10.100;2023-03-31T17:39:30;4.10;;;1.77;;
58842;SDS011;44614;54.356;10.100;2023-03-31T17:41:56;2.58;;;1.65;;